createdAt,value
2022-07-31T00:00:20.833Z,19.00
2022-07-31T00:12:21.305Z,19.45
2022-07-31T00:24:21.708Z,19.26
2022-07-31T00:36:22.200Z,19.43
2022-07-31T00:48:22.647Z,18.00
2022-07-31T01:00:23.125Z,17.74
2022-07-31T01:12:23.563Z,18.39
2022-07-31T01:24:24.003Z,18.35
2022-07-31T01:36:24.484Z,18.66
2022-07-31T01:48:24.921Z,17.95
2022-07-31T02:00:34.616Z,17.71
2022-07-31T02:12:32.250Z,18.28
2022-07-31T02:24:26.307Z,17.22
2022-07-31T02:36:26.749Z,16.84
2022-07-31T02:48:27.170Z,17.87
2022-07-31T03:00:27.756Z,17.46
2022-07-31T03:12:28.079Z,16.80
2022-07-31T03:24:28.534Z,16.53
2022-07-31T03:36:28.962Z,16.85
2022-07-31T03:48:29.467Z,17.22
2022-07-31T04:00:29.935Z,17.03
2022-07-31T04:12:30.374Z,16.86
2022-07-31T04:24:30.823Z,17.99
2022-07-31T04:36:31.296Z,17.63
2022-07-31T04:48:31.769Z,17.60
2022-07-31T05:00:32.174Z,17.07
2022-07-31T05:12:32.635Z,18.27
2022-07-31T05:24:34.106Z,18.75
2022-07-31T05:36:33.547Z,20.27
2022-07-31T05:48:34.024Z,21.78
2022-07-31T06:00:34.436Z,22.82
2022-07-31T06:12:34.882Z,23.07
2022-07-31T06:24:35.394Z,24.04
2022-07-31T06:36:35.829Z,24.79
2022-07-31T06:48:36.276Z,24.62
2022-07-31T07:00:36.716Z,25.35
2022-07-31T07:12:37.197Z,25.50
2022-07-31T07:24:37.647Z,25.74
2022-07-31T07:36:38.111Z,24.79
2022-07-31T07:48:38.549Z,26.74
2022-07-31T08:00:39.035Z,26.49
2022-07-31T08:12:39.465Z,26.08
2022-07-31T08:24:39.935Z,26.23
2022-07-31T08:36:40.380Z,26.52
2022-07-31T08:48:40.834Z,26.13
2022-07-31T09:00:41.303Z,27.33
2022-07-31T09:12:41.736Z,27.31
2022-07-31T09:24:42.164Z,26.79
2022-07-31T09:36:42.647Z,27.39
2022-07-31T09:48:43.437Z,26.53
2022-07-31T10:00:43.705Z,27.73
2022-07-31T10:12:43.991Z,28.39
2022-07-31T10:24:44.515Z,28.47
2022-07-31T10:36:44.946Z,28.49
2022-07-31T10:48:45.535Z,28.73
2022-07-31T11:00:45.855Z,29.44
2022-07-31T11:12:46.281Z,29.58
2022-07-31T11:24:46.742Z,28.71
2022-07-31T11:36:51.181Z,30.58
2022-07-31T11:48:47.683Z,30.93
2022-07-31T12:00:48.144Z,29.79
2022-07-31T12:12:48.560Z,30.78
2022-07-31T12:24:49.030Z,30.16
2022-07-31T12:36:49.462Z,29.31
2022-07-31T12:48:50.047Z,30.13
2022-07-31T13:00:50.410Z,30.33
2022-07-31T13:12:50.837Z,30.38
2022-07-31T13:24:51.294Z,30.82
2022-07-31T13:36:51.790Z,32.32
2022-07-31T13:48:52.281Z,31.96
2022-07-31T14:00:52.684Z,31.95
2022-07-31T14:12:53.118Z,31.32
2022-07-31T14:24:53.609Z,31.44
2022-07-31T14:36:54.065Z,30.97
2022-07-31T14:48:54.551Z,32.03
2022-07-31T15:00:54.961Z,32.30
2022-07-31T15:12:55.460Z,30.82
2022-07-31T15:24:55.883Z,31.12
2022-07-31T15:36:56.333Z,30.89
2022-07-31T15:48:56.828Z,30.84
2022-07-31T16:00:57.399Z,31.30
2022-07-31T16:12:57.753Z,31.87
2022-07-31T16:24:58.167Z,30.76
2022-07-31T16:36:58.597Z,30.89
2022-07-31T16:48:59.171Z,29.37
2022-07-31T17:00:59.593Z,28.98
2022-07-31T17:12:59.982Z,29.40
2022-07-31T17:25:00.446Z,29.32
2022-07-31T17:37:00.959Z,28.63
2022-07-31T17:49:01.447Z,28.83
2022-07-31T18:01:01.820Z,28.00
2022-07-31T18:13:02.281Z,27.51
2022-07-31T18:25:02.757Z,27.74
2022-07-31T18:37:03.214Z,27.17
2022-07-31T18:49:03.702Z,26.44
2022-07-31T19:01:04.106Z,26.14
2022-07-31T19:13:04.589Z,25.80
2022-07-31T19:25:05.017Z,25.28
2022-07-31T19:37:05.428Z,24.28
2022-07-31T19:49:05.968Z,24.63
2022-07-31T20:01:06.416Z,24.40
2022-07-31T20:13:06.841Z,23.92
2022-07-31T20:25:19.492Z,23.51
2022-07-31T20:37:07.747Z,22.80
2022-07-31T20:49:08.263Z,23.08
2022-07-31T21:01:08.722Z,22.11
2022-07-31T21:13:09.117Z,21.63
2022-07-31T21:25:09.569Z,22.17
2022-07-31T21:37:10.015Z,22.30
2022-07-31T21:49:10.513Z,22.69
2022-07-31T22:01:10.995Z,22.14
2022-07-31T22:13:11.376Z,22.02
2022-07-31T22:25:11.878Z,21.75
2022-07-31T22:37:12.260Z,21.62
2022-07-31T22:49:12.754Z,21.33
2022-07-31T23:01:13.205Z,21.63
2022-07-31T23:13:13.649Z,20.18
2022-07-31T23:25:14.094Z,21.96
2022-07-31T23:37:14.543Z,21.31
2022-07-31T23:49:15.078Z,21.62
